MET6040 - Frankfurt to London Heathrow

Boeing 737-800
G-FLII - Fly UK
1 hr 10 mins
354 nm
Fly UK Codeshare - Daily

Departure

Departing from
Frankfurt (FRA)
Departure gate
Terminal 1B
Scheduled Departure
GMT 1420
Local 1520
METAR EDDF 170220Z 02007KT 9999 BKN022 M03/M07 Q1032 R07L/0///95 R07C/11//95 R07R/0///95 R18/11//95 NOSIG
TAF TAF COR EDDF 162348Z 1700/1806 04008KT 9999 SCT015 BKN020 TEMPO 1700/1712 BKN014 TEMPO 1711/1716 04013KT BECMG 1715/1718 SCT020
  • No charts available

Arrival

Arriving at
London Heathrow (LHR)
Arrival gate
Terminal 3
Scheduled Arrival
GMT 1530
Local 1530
METAR EGLL 170220Z AUTO 10003KT 7000 NCD 03/03 Q1033 NOSIG
TAF TAF EGLL 162302Z 1700/1806 09003KT 9999 SCT030 TEMPO 1700/1708 8000 BECMG 1722/1801 6000 PROB30 TEMPO 1803/1806 3000 MIFG BR

Route Map

Planning Resources

SOBR4F SOBRA Y180 BITBU Y181 MAKIK UY181 DEMUL UM624 BUB UL608 LOGAN LAM3A
EDDF ROLIS KOK DVR EGLL
ULKI1S ULKIG Y180 BITBU Y181 MAKIK UY181 DEMUL UM624 BUB UL608 LOGAN LAM3A
EDDF RUDUS UBIDU AMASI UL607 KONAN DVR BIG EGLL
DCT SOBRA Y180 BITBU Y181 MAKIK UY181 DEMUL UM624 BUB UL608 LOGAN DCT
Route:
OFP Layout:
Units:
Detailed Navlog:
ETOPS Planning:
Plan Stepclimbs:
Runway Analysis:
Include NOTAMS:
FIR NOTAMS:
Flight Maps:

Return Flights

MET6039 (Operated by Fly UK)
Boeing 737-800
1240 GMT

Popularity

Hub Current Bids PiReps this month Total PiReps
KMCI 0 0 4
KLAX 0 0 8
KBOS 0 0 0